Carpio, ND

9:03 PM CDT on July 12, 2014 (GMT -0500)
NDDOT Blaisdell US 2 MP 106 (MND008) Elev 1599 ft | 48.33 °N, 102.04 °W | Change Station
Active Advisory: Flood Warning Active Notice: Public Information Statement

Current weather conditions updated 55 minutes ago

Partly Cloudy
Partly Cloudy
72 °F
Feels Like 77 °F
N
14
Wind Variable Wind from East
Gusts 17.0 mph

Tomorrow is forecast to be Cooler than today.

Today
High -- | Low -- °F
--% Chance of Precip.
Yesterday
High -- | Low -- °F
Precip. -- in
5:58 AM 9:46 PM
Waxing Gibbous, 99% visible
Pressure 30.00 in
Visibility 10.0 miles
Clouds Few 8000 ft
Heat Index 77 °F
Dew Point 51 °F
Humidity 47%
Rainfall -999.00 in
Snow Depth Not available.
UV 0 out of 12
Pollen 4.70 out of 12
Air Quality Not available.
Flu Activity Sporadic
METAR KMOT 130154Z AUTO 32009KT 10SM FEW080 22/12 A3001 RMK AO2 SLP158 T02170122

More Conditions Fewer Conditions

Pressure 30.00 in
Visibility 10.0 miles
Clouds Few 8000 ft
Heat Index 77 °F
Dew Point 51 °F
Humidity 47%
Rainfall -999.00 in
Snow Depth Not available.
UV 0 out of 12
Pollen 4.70 out of 12
Air Quality Not available.
Flu Activity Sporadic
METAR KMOT 130154Z AUTO 32009KT 10SM FEW080 22/12 A3001 RMK AO2 SLP158 T02170122

More Conditions Fewer Conditions

10-Day Weather Forecast

Almanac

Astronomy

Jul. 12, 2014 Rise Set
Actual Time 5:58 AM CDT 9:46 PM CDT
Civil Twilight 5:18 AM CDT 10:26 PM CDT
Nautical Twilight 4:23 AM CDT 11:20 PM CDT
Astronomical Twilight 3:00 AM CDT 12:42 AM CDT
Moon 9:39 PM CDT (7/12) 6:27 AM CDT (7/12)
Length of Visible Light 17h 08m
Length of Day
15h 47m
Tomorrow will be 1m 44s shorter.
Waxing Gibbous, 99% of the Moon is Illuminated
Today
Waxing Gibbous
Jul 18
Last Quarter
Jul 26
New
Aug 3
First Quarter
Aug 10
Full

Today's Extremes

State Highs State Lows

Community

WunderPhotos

Upload Photos

1,733,044 photos uploaded!

WunderBlogs® & News

Nearby

Snow Depth

Station Depth Elevation
No new snow has been reported.

Earthquake Activity

City Distance Mag. Time & Date
No recent earthquake activity has been reported nearby.
Minimum magnitude displayed is 2.5.

Coastal Water Temperatures

Place Temperature
No Stations Reporting

Nearby Weather Stations

Station Location Temp. Heat Index Dew Point Humidity Wind Precip. Elev Updated Type
NDDOT Blaisdell US 2 MP 106, Berthold, ND 72 °F 77 °F 51 °F 47% East  at  14 mph 0.00 in / hr 1599 ft 8:08 PM CDT MADIS
Edgeview Estates, Minot, ND 70.6 °F 75 °F 58 °F 64% WNW  at  0.0 mph 0.00 in / hr 1752 ft 9:03 PM CDT Rapid Fire
Dakota Park South Minot, Minot, ND 74.7 °F 78 °F 52 °F 45% North  at  4.5 mph 0.00 in / hr 1750 ft 9:03 PM CDT Rapid Fire

Show More Stations Show Fewer Stations